Time;durP1;ratioP1;P1;durP2;ratioP2;P2;SDS_P1;SDS_P2;PMS_P1;PMS_P2;Temp;Humidity;BMP_temperature;BMP_pressure;BME280_temperature;BME280_humidity;BME280_pressure;Samples;Min_cycle;Max_cycle;Signal;HPM_P1;HPM_P2
2022/10/02 00:00:20;;;;;;;3.60;0.83;;;13.40;98.70;;;;;;5034328;28;20488;-64
2022/10/02 00:02:50;;;;;;;2.20;1.37;;;13.30;98.60;;;;;;5034644;28;20446;-64
2022/10/02 00:05:23;;;;;;;4.63;0.90;;;13.30;98.50;;;;;;5034519;28;20481;-63
2022/10/02 00:07:56;;;;;;;2.83;1.10;;;13.30;98.40;;;;;;5034672;28;20758;-63
2022/10/02 00:10:26;;;;;;;3.70;1.00;;;13.20;98.40;;;;;;5034687;28;20445;-63
2022/10/02 00:12:57;;;;;;;2.57;1.00;;;13.20;98.50;;;;;;5034517;28;20585;-63
2022/10/02 00:15:28;;;;;;;5.47;1.30;;;13.20;98.60;;;;;;5034430;28;20807;-63
2022/10/02 00:17:59;;;;;;;4.40;2.80;;;13.20;98.30;;;;;;5034164;28;20446;-63
2022/10/02 00:20:34;;;;;;;1.90;0.73;;;13.20;98.30;;;;;;5034148;28;20476;-63
2022/10/02 00:23:07;;;;;;;3.07;0.97;;;13.20;98.20;;;;;;5034316;28;20520;-64
2022/10/02 00:25:40;;;;;;;3.47;0.83;;;13.20;98.10;;;;;;5034314;28;20481;-63
2022/10/02 00:28:17;;;;;;;4.20;1.00;;;13.20;98.10;;;;;;5033840;28;20869;-63
2022/10/02 00:31:02;;;;;;;4.73;0.90;;;13.20;98.20;;;;;;5033708;28;20496;-63
2022/10/02 00:33:39;;;;;;;3.00;0.90;;;13.20;98.50;;;;;;5033945;28;20480;-63
2022/10/02 00:36:30;;;;;;;2.23;0.80;;;13.20;98.60;;;;;;5034156;28;20469;-65
2022/10/02 00:39:05;;;;;;;3.33;1.17;;;13.10;98.70;;;;;;5033716;28;20509;-64
2022/10/02 00:42:03;;;;;;;5.67;1.13;;;13.20;99.00;;;;;;5033770;28;20441;-63
2022/10/02 00:44:53;;;;;;;2.83;0.93;;;13.10;98.70;;;;;;5033626;28;20445;-63
2022/10/02 00:47:31;;;;;;;2.37;0.80;;;13.10;98.70;;;;;;5033491;28;20485;-64
2022/10/02 00:50:17;;;;;;;4.50;1.03;;;13.10;98.40;;;;;;5033208;28;20442;-63
2022/10/02 00:52:57;;;;;;;3.03;0.80;;;13.10;98.40;;;;;;5032944;28;20445;-64
2022/10/02 00:56:01;;;;;;;3.33;1.10;;;13.10;98.40;;;;;;5033704;28;20523;-63
2022/10/02 00:58:55;;;;;;;2.30;1.13;;;13.10;98.20;;;;;;5033067;28;20430;-63
2022/10/02 01:01:26;;;;;;;1.93;0.80;;;13.20;98.20;;;;;;5006991;28;20465;-64
2022/10/02 01:03:55;;;;;;;3.60;1.63;;;13.10;98.10;;;;;;5033458;28;20426;-63
2022/10/02 01:06:25;;;;;;;2.87;0.90;;;13.20;98.00;;;;;;5033483;28;20924;-63
2022/10/02 01:08:54;;;;;;;3.20;0.90;;;13.20;98.00;;;;;;5033319;28;20445;-63
2022/10/02 01:11:22;;;;;;;2.40;0.83;;;13.20;98.10;;;;;;5033326;28;20442;-64
2022/10/02 01:13:50;;;;;;;2.30;0.87;;;13.10;98.20;;;;;;5033135;28;20960;-63
2022/10/02 01:16:17;;;;;;;5.03;1.20;;;13.10;98.20;;;;;;5033147;28;20462;-65
2022/10/02 01:18:46;;;;;;;2.03;1.10;;;13.10;98.40;;;;;;5033210;28;20851;-63
2022/10/02 01:21:19;;;;;;;2.60;0.80;;;13.10;98.40;;;;;;5033064;28;20478;-63
2022/10/02 01:23:55;;;;;;;2.80;1.30;;;13.10;98.60;;;;;;5033014;28;20526;-63
2022/10/02 01:26:24;;;;;;;2.27;0.90;;;13.10;98.70;;;;;;5033256;28;20452;-63
2022/10/02 01:28:51;;;;;;;2.93;1.17;;;13.10;98.90;;;;;;5033109;28;20899;-63
2022/10/02 01:31:18;;;;;;;3.67;1.40;;;13.10;98.90;;;;;;5032751;28;20485;-64
2022/10/02 01:33:48;;;;;;;5.23;1.73;;;13.10;98.90;;;;;;5032865;28;20501;-64
2022/10/02 01:36:16;;;;;;;4.13;1.10;;;13.10;98.90;;;;;;5033071;28;20441;-63
2022/10/02 01:38:46;;;;;;;3.90;1.00;;;13.10;99.00;;;;;;5033066;28;20525;-63
2022/10/02 01:41:13;;;;;;;6.27;0.90;;;13.20;99.30;;;;;;5032858;28;20521;-63
2022/10/02 01:43:46;;;;;;;3.50;1.30;;;13.20;99.50;;;;;;5033098;28;20442;-63
2022/10/02 01:46:33;;;;;;;3.60;1.10;;;13.10;99.70;;;;;;5032789;28;20466;-64
2022/10/02 01:49:11;;;;;;;2.73;1.10;;;13.10;99.60;;;;;;5032391;28;20469;-63
2022/10/02 01:51:53;;;;;;;5.73;1.00;;;13.20;99.70;;;;;;5032897;28;20905;-63
2022/10/02 01:54:31;;;;;;;2.93;0.97;;;13.20;99.80;;;;;;5032606;28;20477;-64
2022/10/02 01:57:09;;;;;;;2.60;0.80;;;13.20;99.80;;;;;;5032722;28;20441;-63
2022/10/02 01:59:52;;;;;;;2.50;0.80;;;13.20;99.70;;;;;;5032755;28;20539;-63
2022/10/02 02:02:26;;;;;;;2.30;0.80;;;13.30;99.80;;;;;;5034071;28;20480;-63
2022/10/02 02:04:58;;;;;;;5.40;1.50;;;13.30;99.90;;;;;;5039261;28;20802;-63
2022/10/02 02:07:34;;;;;;;2.50;0.90;;;13.30;99.90;;;;;;5039326;28;20991;-63
2022/10/02 02:10:09;;;;;;;3.50;0.70;;;13.30;99.90;;;;;;5039105;28;20808;-63
2022/10/02 02:12:45;;;;;;;1.70;0.80;;;13.30;99.90;;;;;;5039417;28;20448;-63
2022/10/02 02:15:20;;;;;;;3.93;1.13;;;13.30;99.90;;;;;;5039040;28;20964;-63
2022/10/02 02:17:51;;;;;;;2.73;0.80;;;13.30;99.90;;;;;;5039124;28;20441;-63
2022/10/02 02:20:23;;;;;;;3.57;0.93;;;13.30;99.90;;;;;;5039123;28;20540;-64
2022/10/02 02:22:52;;;;;;;3.90;1.00;;;13.30;99.90;;;;;;5038910;28;20457;-63
2022/10/02 02:25:22;;;;;;;5.73;1.17;;;13.30;99.90;;;;;;5038710;28;20446;-63
2022/10/02 02:27:53;;;;;;;1.90;0.87;;;13.30;99.90;;;;;;5038747;28;20472;-63
2022/10/02 02:30:22;;;;;;;5.53;1.07;;;13.30;99.90;;;;;;5039098;28;20460;-63
2022/10/02 02:32:52;;;;;;;5.50;1.40;;;13.40;99.90;;;;;;5038826;28;20491;-63
2022/10/02 02:35:30;;;;;;;2.30;0.90;;;13.40;99.80;;;;;;5039024;28;20442;-63
2022/10/02 02:38:04;;;;;;;3.37;1.10;;;13.30;99.90;;;;;;5038379;28;20508;-63
2022/10/02 02:40:34;;;;;;;4.07;1.00;;;13.30;99.80;;;;;;5038837;28;20536;-64
2022/10/02 02:43:05;;;;;;;4.50;1.40;;;13.30;99.70;;;;;;5038740;28;21203;-63
2022/10/02 02:45:37;;;;;;;6.10;1.20;;;13.40;99.70;;;;;;5039012;28;20865;-63
2022/10/02 02:48:09;;;;;;;9.60;2.23;;;13.30;99.60;;;;;;5038448;28;20559;-63
2022/10/02 02:50:49;;;;;;;2.37;1.43;;;13.30;99.50;;;;;;5039149;28;20442;-63
2022/10/02 02:53:20;;;;;;;2.70;0.80;;;13.40;99.40;;;;;;5038946;28;20465;-63
2022/10/02 02:55:51;;;;;;;5.20;0.97;;;13.40;99.60;;;;;;5038788;28;20491;-63
2022/10/02 02:58:22;;;;;;;3.53;1.00;;;13.30;99.60;;;;;;5038856;28;20473;-63
2022/10/02 03:00:51;;;;;;;4.27;1.13;;;13.40;99.50;;;;;;5038775;28;21059;-65
2022/10/02 03:03:17;;;;;;;6.27;1.33;;;13.40;99.70;;;;;;5038586;28;20441;-64
2022/10/02 03:05:49;;;;;;;2.77;1.27;;;13.40;99.20;;;;;;5038873;28;20445;-63
2022/10/02 03:08:21;;;;;;;3.70;1.10;;;13.40;99.30;;;;;;5038789;28;20520;-64
2022/10/02 03:10:59;;;;;;;4.63;1.20;;;13.40;99.50;;;;;;5038906;28;20449;-64
2022/10/02 03:13:36;;;;;;;3.80;1.23;;;13.40;99.60;;;;;;5038238;28;20441;-63
2022/10/02 03:16:18;;;;;;;4.30;1.30;;;13.40;99.40;;;;;;5035266;28;20441;-64
2022/10/02 03:18:58;;;;;;;4.03;1.77;;;13.40;99.40;;;;;;5035644;28;20821;-65
2022/10/02 03:21:35;;;;;;;6.20;1.47;;;13.50;99.30;;;;;;5035343;28;20543;-63
2022/10/02 03:24:10;;;;;;;10.60;1.70;;;13.50;99.30;;;;;;5035376;28;20430;-64
2022/10/02 03:26:40;;;;;;;2.80;1.30;;;13.50;99.40;;;;;;5035406;28;20449;-63
2022/10/02 03:29:13;;;;;;;4.97;1.70;;;13.50;99.30;;;;;;5034977;28;20438;-63
2022/10/02 03:31:43;;;;;;;8.03;1.33;;;13.50;99.10;;;;;;5035491;28;20452;-64
2022/10/02 03:34:10;;;;;;;6.87;1.30;;;13.50;99.10;;;;;;5035217;28;20999;-64
2022/10/02 03:36:37;;;;;;;2.93;1.10;;;13.50;99.10;;;;;;5035377;28;20500;-63
2022/10/02 03:39:06;;;;;;;3.00;1.17;;;13.50;99.10;;;;;;5034944;28;20998;-63
2022/10/02 03:41:33;;;;;;;3.27;1.20;;;13.50;98.90;;;;;;5034655;28;20485;-64
2022/10/02 03:44:00;;;;;;;4.70;1.23;;;13.60;99.00;;;;;;5034719;28;20506;-63
2022/10/02 03:46:27;;;;;;;5.57;1.40;;;13.50;98.90;;;;;;5034957;28;20479;-63
2022/10/02 03:48:56;;;;;;;3.47;1.70;;;13.50;98.80;;;;;;5034512;28;20493;-64
2022/10/02 03:51:23;;;;;;;3.90;1.40;;;13.50;99.10;;;;;;5034948;28;20438;-63
2022/10/02 03:53:50;;;;;;;3.90;1.10;;;13.50;99.20;;;;;;5034842;28;20523;-64
2022/10/02 03:56:29;;;;;;;2.40;1.20;;;13.50;99.40;;;;;;5034736;28;20449;-64
2022/10/02 03:59:00;;;;;;;4.10;1.37;;;13.50;99.50;;;;;;5034717;28;20541;-63
2022/10/02 04:01:32;;;;;;;4.13;1.30;;;13.50;99.60;;;;;;5034968;28;20962;-63
2022/10/02 04:04:05;;;;;;;8.97;1.43;;;13.50;99.60;;;;;;5035052;28;20438;-63
2022/10/02 04:06:42;;;;;;;3.60;1.10;;;13.50;99.60;;;;;;5034946;28;20445;-63
2022/10/02 04:09:12;;;;;;;2.97;1.20;;;13.50;99.90;;;;;;5035129;28;21079;-64
2022/10/02 04:11:43;;;;;;;4.00;0.90;;;13.50;99.90;;;;;;5034493;28;20533;-64
2022/10/02 04:14:17;;;;;;;4.03;1.10;;;13.50;99.90;;;;;;5034886;28;20474;-64
2022/10/02 04:16:50;;;;;;;3.17;1.17;;;13.50;99.90;;;;;;5034962;28;20488;-65
2022/10/02 04:19:22;;;;;;;3.30;1.20;;;13.50;99.90;;;;;;5034745;28;20756;-63
2022/10/02 04:21:54;;;;;;;3.60;1.00;;;13.50;99.90;;;;;;5034417;28;20983;-63
2022/10/02 04:24:29;;;;;;;4.57;1.10;;;13.50;99.90;;;;;;5034423;28;20515;-63
2022/10/02 04:27:02;;;;;;;2.83;1.30;;;13.50;99.90;;;;;;5034284;28;20491;-63
2022/10/02 04:29:36;;;;;;;2.53;1.20;;;13.50;99.90;;;;;;5034451;28;20477;-63
2022/10/02 04:32:13;;;;;;;2.60;1.10;;;13.60;99.90;;;;;;5034453;28;20537;-63
2022/10/02 04:34:42;;;;;;;3.23;1.20;;;13.50;99.90;;;;;;5034344;28;20495;-64
2022/10/02 04:37:34;;;;;;;6.07;1.20;;;13.50;99.90;;;;;;5034532;28;20441;-63
2022/10/02 04:40:16;;;;;;;4.90;1.10;;;13.50;99.90;;;;;;5034203;28;20442;-63
2022/10/02 04:42:56;;;;;;;3.20;0.97;;;13.50;99.90;;;;;;5034250;28;20501;-63
2022/10/02 04:45:47;;;;;;;2.00;0.87;;;13.50;99.90;;;;;;5034212;28;20488;-63
2022/10/02 04:48:42;;;;;;;4.50;1.10;;;13.50;99.90;;;;;;5033675;28;20483;-63
2022/10/02 04:51:20;;;;;;;4.40;1.27;;;13.50;99.90;;;;;;5034233;28;20934;-64
2022/10/02 04:54:10;;;;;;;3.80;1.37;;;13.40;99.90;;;;;;5033727;28;20442;-64
2022/10/02 04:57:01;;;;;;;7.70;3.33;;;13.40;99.90;;;;;;5034223;28;20503;-67
2022/10/02 04:59:43;;;;;;;2.97;0.97;;;13.40;99.90;;;;;;5033778;28;20433;-63
2022/10/02 05:02:26;;;;;;;3.93;1.23;;;13.40;99.90;;;;;;5033854;28;20484;-64
2022/10/02 05:05:18;;;;;;;2.23;1.10;;;13.40;99.90;;;;;;5033516;28;20484;-63
2022/10/02 05:08:16;;;;;;;2.93;1.10;;;13.50;99.90;;;;;;5033940;28;20429;-63
2022/10/02 05:10:54;;;;;;;8.20;1.47;;;13.50;99.90;;;;;;5008359;28;20500;-63
2022/10/02 05:13:41;;;;;;;2.10;0.90;;;13.40;99.90;;;;;;5033742;28;20521;-63
2022/10/02 05:16:26;;;;;;;2.00;1.00;;;13.40;99.90;;;;;;5033692;28;20445;-64
2022/10/02 05:19:16;;;;;;;2.67;1.10;;;13.40;99.90;;;;;;5033706;28;20437;-64
2022/10/02 05:22:10;;;;;;;2.93;1.07;;;13.40;99.90;;;;;;5020837;28;20481;-64
2022/10/02 05:24:49;;;;;;;4.00;1.00;;;13.40;99.90;;;;;;5033789;28;20820;-63
2022/10/02 05:27:36;;;;;;;2.83;1.03;;;13.40;99.90;;;;;;5033312;28;20827;-64
2022/10/02 05:30:09;;;;;;;2.50;1.03;;;13.40;99.90;;;;;;5033604;28;20469;-63
2022/10/02 05:33:06;;;;;;;3.43;1.70;;;13.40;99.90;;;;;;5033623;28;20775;-63
2022/10/02 05:35:49;;;;;;;2.83;1.67;;;13.40;99.90;;;;;;5032211;28;20864;-63
2022/10/02 05:38:31;;;;;;;4.93;1.23;;;13.40;99.90;;;;;;5032743;28;20445;-63
2022/10/02 05:41:04;;;;;;;5.90;1.40;;;13.40;99.90;;;;;;5033220;28;20520;-63
2022/10/02 05:43:40;;;;;;;2.07;0.77;;;13.40;99.90;;;;;;5033275;28;20469;-63
2022/10/02 05:46:14;;;;;;;4.63;1.20;;;13.40;99.90;;;;;;5033260;28;20429;-63
2022/10/02 05:48:45;;;;;;;4.00;1.27;;;13.40;99.90;;;;;;5032887;28;20519;-64
2022/10/02 05:51:18;;;;;;;3.83;0.97;;;13.40;99.90;;;;;;5033403;28;20442;-64
2022/10/02 05:53:49;;;;;;;3.20;1.00;;;13.40;99.90;;;;;;5033413;28;20496;-64
2022/10/02 05:56:22;;;;;;;5.77;1.83;;;13.40;99.90;;;;;;5033163;28;20466;-63
2022/10/02 05:59:05;;;;;;;2.97;1.00;;;13.40;99.90;;;;;;5033206;28;20465;-63
2022/10/02 06:01:37;;;;;;;3.57;1.20;;;13.50;99.90;;;;;;5032700;28;20575;-63
2022/10/02 06:04:11;;;;;;;3.30;1.30;;;13.50;99.90;;;;;;5033045;28;20492;-63
2022/10/02 06:06:42;;;;;;;4.87;1.13;;;13.50;99.90;;;;;;5033017;28;20437;-63
2022/10/02 06:09:14;;;;;;;5.20;1.63;;;13.50;99.90;;;;;;5032968;28;20446;-65
2022/10/02 06:11:47;;;;;;;5.40;1.97;;;13.50;99.90;;;;;;5032726;28;20449;-64
2022/10/02 06:14:22;;;;;;;3.00;1.87;;;13.50;99.90;;;;;;5033184;28;20477;-64
2022/10/02 06:16:55;;;;;;;8.40;2.90;;;13.50;99.90;;;;;;5032811;28;20908;-63
2022/10/02 06:19:28;;;;;;;7.97;2.40;;;13.60;99.90;;;;;;5032952;28;20469;-63
2022/10/02 06:22:00;;;;;;;3.47;1.20;;;13.60;99.90;;;;;;5032887;28;20572;-64
2022/10/02 06:24:31;;;;;;;3.50;1.30;;;13.60;99.90;;;;;;5032706;28;20532;-63
2022/10/02 06:27:04;;;;;;;2.50;1.10;;;13.60;99.90;;;;;;5032987;28;20441;-63
2022/10/02 06:29:36;;;;;;;3.63;1.23;;;13.60;99.90;;;;;;5032390;28;20476;-63
2022/10/02 06:32:16;;;;;;;6.03;1.37;;;13.60;99.90;;;;;;5032747;28;20442;-63
2022/10/02 06:34:44;;;;;;;3.30;1.30;;;13.60;99.90;;;;;;5032870;28;20520;-64
2022/10/02 06:37:28;;;;;;;3.70;1.70;;;13.60;99.90;;;;;;5032701;28;20438;-63
2022/10/02 06:40:24;;;;;;;2.43;1.00;;;13.70;99.90;;;;;;5032804;28;20476;-63
2022/10/02 06:43:02;;;;;;;5.27;1.40;;;13.60;99.90;;;;;;5030098;28;20508;-63
2022/10/02 06:45:41;;;;;;;24.90;20.47;;;13.70;99.90;;;;;;5032631;28;20499;-63
2022/10/02 06:48:21;;;;;;;8.83;5.43;;;13.70;99.90;;;;;;5031900;28;20470;-63
2022/10/02 06:50:55;;;;;;;3.43;2.73;;;13.70;99.90;;;;;;5035559;28;20449;-64
2022/10/02 06:53:42;;;;;;;5.47;2.10;;;13.60;99.90;;;;;;5036667;28;20820;-64
2022/10/02 06:56:22;;;;;;;6.30;1.33;;;13.60;99.90;;;;;;5036465;28;20480;-63
2022/10/02 06:59:04;;;;;;;6.20;5.00;;;13.60;99.90;;;;;;5035980;28;20441;-63
2022/10/02 07:01:43;;;;;;;3.90;2.37;;;13.60;99.90;;;;;;5035596;28;20499;-63
2022/10/02 07:04:23;;;;;;;3.30;2.60;;;13.70;99.90;;;;;;5036244;28;20912;-64
2022/10/02 07:07:04;;;;;;;6.00;1.60;;;13.70;99.90;;;;;;5035709;28;20536;-64
2022/10/02 07:10:02;;;;;;;3.40;1.47;;;13.70;99.90;;;;;;5036224;28;20437;-63
2022/10/02 07:12:53;;;;;;;5.00;1.60;;;13.70;99.90;;;;;;5035871;28;20587;-63
2022/10/02 07:15:57;;;;;;;8.50;2.20;;;13.70;99.90;;;;;;5035996;28;20448;-64
2022/10/02 07:18:41;;;;;;;2.93;1.77;;;13.70;99.90;;;;;;5020548;28;20477;-63
2022/10/02 07:21:20;;;;;;;4.63;1.80;;;13.70;99.90;;;;;;5036142;28;20971;-63
2022/10/02 07:23:55;;;;;;;3.30;1.83;;;13.70;99.90;;;;;;5035875;28;20909;-63
2022/10/02 07:26:46;;;;;;;2.47;1.60;;;13.70;99.90;;;;;;5035765;28;20496;-63
2022/10/02 07:29:43;;;;;;;3.37;1.73;;;13.70;99.90;;;;;;5035493;28;20524;-64
2022/10/02 07:32:40;;;;;;;6.57;2.50;;;13.70;99.90;;;;;;5020561;28;20772;-64
2022/10/02 07:35:41;;;;;;;6.20;2.60;;;13.70;99.90;;;;;;5033146;28;20438;-63
2022/10/02 07:38:42;;;;;;;5.60;4.17;;;13.70;99.90;;;;;;5030882;28;21006;-63
2022/10/02 07:41:24;;;;;;;5.60;4.17;;;13.70;99.90;;;;;;5034959;28;20478;-64
2022/10/02 07:43:57;;;;;;;9.17;6.23;;;13.70;99.90;;;;;;5035474;28;20469;-64
2022/10/02 07:46:35;;;;;;;9.27;7.07;;;13.70;99.90;;;;;;5035153;28;20936;-63
2022/10/02 07:49:20;;;;;;;5.37;3.90;;;13.70;99.90;;;;;;5035043;28;20466;-63
2022/10/02 07:51:55;;;;;;;5.60;3.90;;;13.80;99.90;;;;;;5035051;28;20441;-65
2022/10/02 07:54:58;;;;;;;5.53;3.77;;;13.80;99.90;;;;;;5035277;28;20442;-63
2022/10/02 07:57:35;;;;;;;5.23;3.57;;;13.80;99.90;;;;;;5035390;28;20441;-63
2022/10/02 08:00:06;;;;;;;3.43;1.73;;;13.80;99.90;;;;;;5034626;28;20937;-63
2022/10/02 08:02:39;;;;;;;4.20;2.03;;;13.80;99.90;;;;;;5035058;28;20855;-63
2022/10/02 08:05:17;;;;;;;6.57;2.87;;;13.90;99.90;;;;;;5035071;28;20500;-65
2022/10/02 08:07:49;;;;;;;5.40;3.43;;;14.00;99.90;;;;;;5035256;28;20917;-65
2022/10/02 08:10:21;;;;;;;3.90;1.73;;;14.00;99.90;;;;;;5034732;28;20488;-63
2022/10/02 08:12:59;;;;;;;3.97;1.77;;;14.00;99.90;;;;;;5035011;28;20525;-64
2022/10/02 08:15:33;;;;;;;2.50;1.50;;;14.10;99.90;;;;;;5034444;28;20500;-63
2022/10/02 08:18:09;;;;;;;3.47;2.33;;;14.20;99.90;;;;;;5034711;28;20449;-63
2022/10/02 08:20:42;;;;;;;3.53;1.77;;;14.20;99.90;;;;;;5034911;28;20787;-63
2022/10/02 08:23:20;;;;;;;5.20;3.10;;;14.30;99.90;;;;;;5034874;28;20488;-63
2022/10/02 08:25:52;;;;;;;4.97;2.00;;;14.40;99.90;;;;;;5034769;28;20516;-64
2022/10/02 08:28:25;;;;;;;3.33;1.70;;;14.40;99.90;;;;;;5034507;28;20434;-67
2022/10/02 08:30:52;;;;;;;2.97;1.90;;;14.40;99.90;;;;;;5034706;28;20474;-64
2022/10/02 08:33:20;;;;;;;3.00;1.30;;;14.40;99.90;;;;;;5034553;28;20445;-65
2022/10/02 08:36:06;;;;;;;2.60;1.30;;;14.40;99.90;;;;;;5034343;28;20495;-64
2022/10/02 08:38:39;;;;;;;4.27;1.50;;;14.30;99.90;;;;;;5034543;28;20453;-63
2022/10/02 08:41:48;;;;;;;9.73;7.47;;;14.30;99.90;;;;;;5034264;28;20517;-65
2022/10/02 08:44:38;;;;;;;4.53;3.03;;;14.40;99.90;;;;;;5024182;28;20543;-64
2022/10/02 08:47:54;;;;;;;2.60;1.80;;;14.60;99.90;;;;;;5031963;28;20477;-63
2022/10/02 08:50:58;;;;;;;3.70;2.70;;;15.00;99.90;;;;;;5034289;28;20789;-64
2022/10/02 08:54:16;;;;;;;4.83;3.77;;;15.70;99.90;;;;;;5021392;28;20483;-64
2022/10/02 08:56:57;;;;;;;4.93;2.20;;;16.20;99.90;;;;;;5034171;28;20528;-65
2022/10/02 08:59:57;;;;;;;4.10;2.80;;;16.60;99.90;;;;;;5034075;28;20534;-64
2022/10/02 09:03:08;;;;;;;5.50;2.77;;;16.70;99.90;;;;;;5033867;28;20495;-63
2022/10/02 09:06:09;;;;;;;2.80;1.50;;;17.10;99.90;;;;;;5034045;28;20784;-63
2022/10/02 09:09:08;;;;;;;3.40;1.60;;;17.30;99.10;;;;;;5029226;28;20540;-64
2022/10/02 09:12:09;;;;;;;4.70;2.10;;;17.20;98.50;;;;;;4971126;28;20437;-64
2022/10/02 09:14:53;;;;;;;3.37;1.70;;;17.10;98.80;;;;;;5021202;28;20556;-64
2022/10/02 09:17:48;;;;;;;3.33;1.60;;;17.10;99.00;;;;;;5033687;28;20478;-64
2022/10/02 09:20:47;;;;;;;5.50;1.87;;;17.00;99.10;;;;;;4998658;28;20935;-64
2022/10/02 09:27:30;;;;;;;2.43;1.57;;;16.90;98.90;;;;;;5018881;28;20437;-64
2022/10/02 09:30:45;;;;;;;3.23;1.50;;;16.80;99.30;;;;;;5033502;28;20444;-63
2022/10/02 09:34:17;;;;;;;2.67;1.53;;;16.70;99.80;;;;;;5032436;28;20501;-64
2022/10/02 09:37:15;;;;;;;3.17;1.87;;;16.80;99.90;;;;;;4972185;28;20958;-64
2022/10/02 09:40:03;;;;;;;3.27;1.73;;;16.80;99.60;;;;;;4972104;28;20438;-64
2022/10/02 09:43:13;;;;;;;4.07;2.00;;;16.70;99.70;;;;;;5025183;28;20507;-63
2022/10/02 09:46:12;;;;;;;6.33;3.17;;;16.60;99.90;;;;;;4971817;28;20482;-65
2022/10/02 09:49:12;;;;;;;3.60;2.30;;;16.80;99.90;;;;;;5031760;28;20479;-64
2022/10/02 09:52:21;;;;;;;4.90;3.83;;;16.80;99.90;;;;;;5033168;28;20860;-64
2022/10/02 09:55:24;;;;;;;4.80;3.30;;;17.00;99.90;;;;;;5032713;28;20464;-64
2022/10/02 09:58:30;;;;;;;4.80;3.60;;;17.20;99.90;;;;;;5032767;28;20436;-64
2022/10/02 10:01:21;;;;;;;4.13;1.20;;;17.30;99.90;;;;;;5017879;28;20491;-64
2022/10/02 10:04:45;;;;;;;2.60;1.00;;;17.20;99.90;;;;;;5033162;28;20495;-64
2022/10/02 10:07:35;;;;;;;2.80;1.13;;;17.20;99.90;;;;;;4971847;28;20443;-64
2022/10/02 10:10:46;;;;;;;3.80;1.03;;;17.30;99.90;;;;;;5032949;28;20503;-64
2022/10/02 10:13:35;;;;;;;2.40;0.93;;;18.10;99.90;;;;;;5032867;28;20804;-64
2022/10/02 10:16:42;;;;;;;6.53;2.90;;;19.20;99.90;;;;;;5032485;28;20495;-64
2022/10/02 10:19:39;;;;;;;3.20;1.70;;;19.80;99.90;;;;;;5033105;28;20437;-64
2022/10/02 10:22:31;;;;;;;1.83;0.73;;;22.40;99.90;;;;;;5033115;28;20584;-64
2022/10/02 10:25:18;;;;;;;2.57;0.80;;;24.40;92.00;;;;;;5035946;28;20434;-64
2022/10/02 10:28:05;;;;;;;1.80;0.70;;;26.20;90.20;;;;;;5037032;28;20466;-64
2022/10/02 10:31:19;;;;;;;1.70;0.60;;;28.60;76.00;;;;;;5036931;28;20487;-64
2022/10/02 10:34:19;;;;;;;3.07;0.63;;;31.10;70.70;;;;;;5000957;28;20441;-65
2022/10/02 10:40:37;;;;;;;1.50;0.50;;;38.50;41.10;;;;;;5036432;28;20768;-66
2022/10/02 10:43:43;;;;;;;1.80;0.60;;;41.40;32.60;;;;;;4975124;28;20997;-65
2022/10/02 10:46:43;;;;;;;1.60;0.50;;;42.70;27.80;;;;;;5036601;28;20437;-66
2022/10/02 10:49:40;;;;;;;1.80;0.60;;;44.20;26.50;;;;;;5031291;28;20477;-65
2022/10/02 10:52:17;;;;;;;2.47;0.90;;;45.90;23.50;;;;;;5036565;28;20473;-65
2022/10/02 10:55:04;;;;;;;1.80;0.70;;;46.20;22.00;;;;;;5036390;28;20491;-66
2022/10/02 10:57:43;;;;;;;1.70;0.60;;;47.00;22.40;;;;;;5036175;28;20441;-65
2022/10/02 11:00:21;;;;;;;2.97;2.23;;;48.00;19.00;;;;;;5036010;28;20528;-67
2022/10/02 11:03:35;;;;;;;1.63;0.60;;;47.80;19.00;;;;;;5036072;28;20489;-66
2022/10/02 11:06:35;;;;;;;1.90;0.70;;;48.50;19.40;;;;;;5010424;28;20446;-64
2022/10/02 11:09:50;;;;;;;1.80;0.70;;;49.30;18.00;;;;;;5036200;28;20841;-63
2022/10/02 11:12:48;;;;;;;1.80;0.80;;;49.70;17.80;;;;;;5036044;28;20477;-63
2022/10/02 11:15:46;;;;;;;1.83;0.83;;;50.50;16.90;;;;;;5035855;28;20838;-63
2022/10/02 11:18:30;;;;;;;2.23;0.70;;;50.80;15.70;;;;;;5035982;28;20446;-63
2022/10/02 11:21:14;;;;;;;1.63;0.60;;;48.20;15.60;;;;;;5035984;28;20484;-65
2022/10/02 11:24:09;;;;;;;1.60;0.60;;;44.80;17.10;;;;;;5035829;28;20825;-65
2022/10/02 11:27:04;;;;;;;1.50;0.50;;;43.10;19.30;;;;;;5030618;28;20447;-65
2022/10/02 11:30:04;;;;;;;2.60;1.23;;;42.40;20.70;;;;;;5029831;28;20482;-65
2022/10/02 11:33:00;;;;;;;3.20;0.73;;;41.50;20.50;;;;;;5002271;28;20588;-65
2022/10/02 11:35:41;;;;;;;1.50;0.50;;;40.20;21.70;;;;;;5034713;28;20438;-65
2022/10/02 11:38:31;;;;;;;1.57;0.53;;;38.30;22.20;;;;;;5035549;28;20473;-64
2022/10/02 11:41:23;;;;;;;2.30;1.00;;;36.20;24.30;;;;;;5035311;28;20465;-64
2022/10/02 11:44:15;;;;;;;1.63;0.60;;;34.10;26.60;;;;;;5033260;28;20482;-64
2022/10/02 11:47:03;;;;;;;1.70;0.60;;;32.00;29.40;;;;;;5035648;28;20444;-65
2022/10/02 11:50:00;;;;;;;2.53;0.50;;;30.40;30.80;;;;;;5035197;28;20568;-64
2022/10/02 11:52:52;;;;;;;1.60;0.60;;;29.20;33.40;;;;;;5035122;28;20984;-64
2022/10/02 11:55:35;;;;;;;1.70;0.63;;;28.10;36.80;;;;;;5035116;28;20477;-64
2022/10/02 11:58:14;;;;;;;1.90;0.70;;;27.50;40.30;;;;;;5035023;28;20432;-64
2022/10/02 12:01:08;;;;;;;1.60;0.60;;;27.10;40.50;;;;;;5034888;28;21051;-64
2022/10/02 12:03:51;;;;;;;1.60;0.60;;;26.90;42.10;;;;;;5035130;28;20445;-64
2022/10/02 12:06:24;;;;;;;3.30;0.70;;;;;;;;;;5034864;28;20472;-65
2022/10/02 12:09:02;;;;;;;1.80;0.70;;;26.90;42.70;;;;;;5034960;28;21005;-64
2022/10/02 12:11:36;;;;;;;1.90;0.60;;;26.40;43.10;;;;;;5034571;28;20442;-64
2022/10/02 12:14:16;;;;;;;1.80;0.67;;;25.80;45.10;;;;;;5034872;28;20485;-64
2022/10/02 12:17:04;;;;;;;1.97;0.93;;;25.40;46.70;;;;;;5034683;28;20422;-65
2022/10/02 12:26:57;;;;;;;2.03;0.90;;;24.90;48.10;;;;;;5034719;28;20994;-63
2022/10/02 12:28:28;;;;;;;1.70;0.63;;;23.70;52.00;;;;;;5034659;28;20429;-64
2022/10/02 12:31:05;;;;;;;2.10;1.00;;;23.40;52.50;;;;;;5034640;28;20441;-64
2022/10/02 12:33:43;;;;;;;2.00;0.90;;;23.00;54.10;;;;;;5034225;28;20559;-64
2022/10/02 12:36:34;;;;;;;2.00;0.70;;;22.70;56.40;;;;;;5034621;28;20442;-64
2022/10/02 12:39:12;;;;;;;1.77;0.67;;;22.40;57.90;;;;;;5034431;28;20433;-63
2022/10/02 12:42:06;;;;;;;1.80;0.70;;;22.10;60.20;;;;;;5034655;28;20868;-63
2022/10/02 12:45:09;;;;;;;4.17;1.20;;;21.60;62.40;;;;;;5029360;28;20507;-64
2022/10/02 12:47:57;;;;;;;33.40;18.23;;;21.30;64.50;;;;;;4972467;28;20803;-63
2022/10/02 12:50:54;;;;;;;8.40;4.50;;;21.00;67.90;;;;;;5028610;28;20488;-66
2022/10/02 12:53:48;;;;;;;6.13;5.30;;;20.80;70.70;;;;;;5033777;28;20442;-63
2022/10/02 12:56:50;;;;;;;18.47;15.57;;;20.70;74.60;;;;;;5034283;28;20783;-64
2022/10/02 12:59:26;;;;;;;6.30;4.20;;;20.70;74.60;;;;;;5033817;28;20498;-64
2022/10/02 13:02:28;;;;;;;15.83;14.13;;;20.70;75.40;;;;;;5033398;28;20426;-64
2022/10/02 13:05:27;;;;;;;7.03;5.50;;;20.60;77.00;;;;;;5034054;28;20559;-63
2022/10/02 13:08:09;;;;;;;4.77;3.40;;;20.50;77.80;;;;;;5013223;28;20434;-63
2022/10/02 13:10:42;;;;;;;21.83;16.03;;;20.50;80.50;;;;;;5033745;28;20917;-63
2022/10/02 13:13:24;;;;;;;5.53;3.73;;;20.30;80.50;;;;;;5033832;28;20438;-63
2022/10/02 13:16:03;;;;;;;6.23;5.07;;;20.30;82.40;;;;;;5033796;28;20469;-63
2022/10/02 13:18:49;;;;;;;3.40;1.80;;;20.30;83.70;;;;;;5033677;28;20434;-63
2022/10/02 13:21:21;;;;;;;6.67;5.70;;;20.10;83.20;;;;;;5033851;28;20437;-64
2022/10/02 13:24:02;;;;;;;16.70;14.70;;;20.10;83.20;;;;;;5033123;28;20551;-63
2022/10/02 13:26:37;;;;;;;20.93;18.90;;;20.00;85.30;;;;;;5033620;28;20441;-64
2022/10/02 13:29:20;;;;;;;17.60;15.70;;;20.00;86.00;;;;;;5033272;28;20472;-63
2022/10/02 13:32:11;;;;;;;8.77;7.33;;;20.10;86.70;;;;;;5033500;28;20944;-63
2022/10/02 13:34:53;;;;;;;2.90;1.57;;;20.30;89.60;;;;;;5033571;28;20441;-63
2022/10/02 13:37:32;;;;;;;2.57;1.60;;;20.40;87.00;;;;;;5033247;28;20488;-63
2022/10/02 13:40:16;;;;;;;1.80;0.90;;;20.60;87.80;;;;;;5033041;28;20441;-63
2022/10/02 13:43:02;;;;;;;1.67;0.70;;;20.60;87.30;;;;;;5033023;28;20956;-64
2022/10/02 13:45:33;;;;;;;3.23;1.57;;;20.70;86.40;;;;;;5033087;28;20441;-63
2022/10/02 13:48:11;;;;;;;1.93;0.77;;;20.70;87.30;;;;;;5032838;28;20473;-64
2022/10/02 13:50:52;;;;;;;2.20;0.60;;;20.70;87.40;;;;;;5033232;28;20533;-63
2022/10/02 13:53:44;;;;;;;1.73;0.70;;;20.60;87.90;;;;;;5033038;28;20429;-64
2022/10/02 13:56:27;;;;;;;1.60;0.60;;;20.50;87.50;;;;;;5030588;28;20453;-64
2022/10/02 13:59:17;;;;;;;2.20;1.10;;;20.50;86.60;;;;;;5032101;28;20441;-63
2022/10/02 14:02:09;;;;;;;4.70;2.20;;;20.50;86.90;;;;;;5033221;28;20442;-64
2022/10/02 14:04:50;;;;;;;2.37;1.10;;;20.40;88.80;;;;;;5032978;28;20481;-63
2022/10/02 14:07:37;;;;;;;3.40;2.10;;;20.30;88.40;;;;;;5033359;28;20516;-64
2022/10/02 14:10:14;;;;;;;4.47;2.57;;;20.30;88.30;;;;;;5033158;28;20446;-63
2022/10/02 14:12:56;;;;;;;3.47;2.23;;;20.40;89.80;;;;;;5033175;28;20437;-63
2022/10/02 14:15:37;;;;;;;1.87;0.90;;;20.40;88.90;;;;;;5033016;28;20947;-63